Terminal Aerodrome Forecast
Issued by NWS

Home | Current Version | Previous Version | Graphics & Text | Print | Product List | Glossary On
Versions: 1 2 3 4 5 6 7 8 9 10 11 12 13
684
FTUS43 KBIS 211619 AAA
TAFMOT
TAF AMD
KMOT 211619Z 2116/2212 16013G22KT P6SM SKC
     FM220100 16006KT P6SM SKC
     FM220600 18007KT P6SM SKC=

USA.gov is the U.S. government's official web portal to all federal, state and local government web resources and services.